Time;durP1;ratioP1;P1;durP2;ratioP2;P2;SDS_P1;SDS_P2;PMS_P1;PMS_P2;Temp;Humidity;BMP_temperature;BMP_pressure;BME280_temperature;BME280_humidity;BME280_pressure;Samples;Min_cycle;Max_cycle;Signal;HPM_P1;HPM_P2
2021/05/09 00:05:54;;;;;;;8.85;5.40;;;;;;;8.12;90.34;99791.13;21069796;28;20037;-73
2021/05/09 00:15:56;;;;;;;9.73;5.20;;;;;;;8.12;90.39;99783.31;21065056;28;20055;-73
2021/05/09 00:25:58;;;;;;;7.95;5.25;;;;;;;8.03;89.99;99773.34;21082363;28;20056;-71
2021/05/09 00:35:59;;;;;;;11.10;5.72;;;;;;;7.96;90.81;99772.03;21072347;28;20099;-72
2021/05/09 00:46:00;;;;;;;8.50;5.13;;;;;;;7.72;91.93;99750.69;21130834;28;20048;-73
2021/05/09 00:56:03;;;;;;;9.25;5.47;;;;;;;7.53;93.47;99752.59;21158390;28;20537;-73
2021/05/09 01:06:09;;;;;;;11.68;5.78;;;;;;;7.54;92.91;99734.28;21070597;28;20301;-73
2021/05/09 01:16:10;;;;;;;10.25;5.85;;;;;;;7.63;93.53;99736.41;21076798;28;20044;-72
2021/05/09 01:26:12;;;;;;;9.05;6.10;;;;;;;7.69;93.57;99722.22;21077631;28;20114;-72
2021/05/09 01:36:13;;;;;;;9.15;5.35;;;;;;;7.61;93.18;99720.03;21066958;28;20803;-73
2021/05/09 01:46:14;;;;;;;10.32;5.63;;;;;;;7.60;93.11;99718.34;21058006;28;20098;-72
2021/05/09 01:56:16;;;;;;;9.05;5.97;;;;;;;7.66;93.66;99712.81;21074915;28;20051;-73
2021/05/09 02:06:17;;;;;;;12.23;6.22;;;;;;;7.54;94.69;99702.19;21067058;28;20388;-73
2021/05/09 02:16:18;;;;;;;11.27;6.25;;;;;;;7.68;94.43;99695.34;21057061;28;20052;-73
2021/05/09 02:26:20;;;;;;;10.00;6.10;;;;;;;7.64;95.99;99690.38;21073814;28;20125;-73
2021/05/09 02:36:21;;;;;;;11.05;6.18;;;;;;;7.59;95.93;99682.81;21062378;28;20048;-72
2021/05/09 02:46:23;;;;;;;10.65;6.25;;;;;;;7.59;97.22;99689.78;21142832;28;20558;-73
2021/05/09 02:56:24;;;;;;;9.65;5.75;;;;;;;7.60;97.72;99701.88;21128348;28;20044;-73
2021/05/09 03:06:25;;;;;;;10.52;5.65;;;;;;;7.73;95.94;99703.75;21061796;28;20043;-72
2021/05/09 03:16:27;;;;;;;8.13;5.03;;;;;;;7.60;97.46;99707.94;21051216;28;20048;-73
2021/05/09 03:26:28;;;;;;;8.77;5.32;;;;;;;7.63;97.43;99689.53;21068289;28;20046;-71
2021/05/09 03:36:30;;;;;;;10.48;5.93;;;;;;;7.49;98.49;99680.78;21039860;28;20564;-72
2021/05/09 03:46:31;;;;;;;7.90;5.18;;;;;;;7.38;99.17;99672.69;21049987;28;20048;-73
2021/05/09 03:56:33;;;;;;;9.23;5.70;;;;;;;7.43;98.54;99678.50;21067213;28;20040;-74
2021/05/09 04:06:34;;;;;;;9.75;5.72;;;;;;;7.48;98.73;99682.53;21058241;28;20044;-74
2021/05/09 04:16:36;;;;;;;9.85;5.75;;;;;;;7.71;97.96;99684.75;21065502;28;20101;-73
2021/05/09 04:26:37;;;;;;;8.90;5.40;;;;;;;8.07;95.29;99684.53;21066683;28;20044;-73
2021/05/09 04:36:38;;;;;;;9.45;5.05;;;;;;;8.29;94.66;99681.53;21096498;28;20040;-73
2021/05/09 04:46:40;;;;;;;6.95;5.00;;;;;;;8.94;91.48;99682.13;21151671;28;20047;-74
2021/05/09 04:56:41;;;;;;;7.95;5.47;;;;;;;9.42;88.30;99670.53;21152401;28;20051;-73
2021/05/09 05:06:44;;;;;;;8.30;5.47;;;;;;;9.55;88.19;99674.06;21069846;28;20048;-72
2021/05/09 05:16:46;;;;;;;9.90;6.13;;;;;;;9.66;87.09;99673.41;21077570;28;20044;-72
2021/05/09 05:26:48;;;;;;;9.13;5.50;;;;;;;10.14;85.75;99677.34;21079854;28;20123;-72
2021/05/09 05:36:50;;;;;;;9.02;5.25;;;;;;;10.51;83.33;99678.44;21051436;28;20517;-73
2021/05/09 05:46:51;;;;;;;9.93;5.95;;;;;;;11.17;79.34;99665.25;21076382;28;20097;-73
2021/05/09 05:56:53;;;;;;;12.10;5.90;;;;;;;11.49;79.43;99669.09;21078225;28;20036;-72
2021/05/09 06:06:54;;;;;;;9.75;5.32;;;;;;;11.60;80.14;99665.72;21069475;28;20093;-71
2021/05/09 06:16:56;;;;;;;10.40;5.95;;;;;;;11.77;79.47;99670.66;21074019;28;20040;-71
2021/05/09 06:26:57;;;;;;;7.60;5.13;;;;;;;12.05;78.95;99673.91;21132021;28;20100;-72
2021/05/09 06:36:58;;;;;;;8.90;5.35;;;;;;;12.35;78.14;99669.06;21068979;28;20051;-73
2021/05/09 06:47:01;;;;;;;13.18;5.20;;;;;;;12.65;77.34;99660.72;21107638;28;20054;-72
2021/05/09 06:57:04;;;;;;;7.95;4.28;;;;;;;12.85;76.05;99663.53;21138908;28;20048;-72
2021/05/09 07:07:06;;;;;;;10.32;5.07;;;;;;;13.49;74.62;99657.81;21030617;28;20483;-72
2021/05/09 07:17:08;;;;;;;9.73;5.80;;;;;;;13.93;77.02;99659.53;21016877;28;20106;-72
2021/05/09 07:27:09;;;;;;;8.80;4.72;;;;;;;14.28;72.19;99662.81;21050796;28;20712;-71
2021/05/09 07:37:11;;;;;;;7.88;4.57;;;;;;;14.44;72.89;99658.00;21059827;28;20127;-72
2021/05/09 07:47:12;;;;;;;6.57;3.08;;;;;;;14.87;68.20;99636.00;21069395;28;20040;-72
2021/05/09 07:57:13;;;;;;;4.88;2.97;;;;;;;15.33;68.11;99623.22;21067513;28;20139;-73
2021/05/09 08:07:15;;;;;;;5.60;3.33;;;;;;;15.95;68.05;99608.16;21059911;28;20095;-73
2021/05/09 08:17:16;;;;;;;7.13;3.60;;;;;;;16.45;65.99;99598.31;21067664;28;20048;-73
2021/05/09 08:27:20;;;;;;;8.38;3.58;;;;;;;16.71;64.42;99599.41;21060339;28;20071;-72
2021/05/09 08:37:21;;;;;;;6.65;3.30;;;;;;;17.10;60.20;99589.59;21076112;28;20051;-72
2021/05/09 08:47:22;;;;;;;7.50;3.58;;;;;;;17.52;61.56;99584.69;21117271;28;20049;-73
2021/05/09 08:57:24;;;;;;;6.32;3.22;;;;;;;17.98;58.32;99574.97;21088823;28;20479;-72
2021/05/09 09:07:43;;;;;;;5.85;3.10;;;;;;;18.44;59.01;99558.81;21100599;28;20483;-72
2021/05/09 09:17:44;;;;;;;9.27;3.50;;;;;;;19.00;55.62;99546.94;21080079;28;20105;-73
2021/05/09 09:27:48;;;;;;;10.32;3.25;;;;;;;19.74;54.04;99533.00;21054890;28;20353;-73
2021/05/09 09:37:49;;;;;;;5.20;2.38;;;;;;;20.15;53.47;99523.28;21072385;28;20059;-72
2021/05/09 09:48:02;;;;;;;7.15;3.10;;;;;;;20.54;52.13;99515.47;21076447;28;20082;-72
2021/05/09 09:58:04;;;;;;;5.10;2.45;;;;;;;20.91;51.39;99502.44;21067348;28;20056;-72
2021/05/09 10:08:07;;;;;;;8.52;2.30;;;;;;;21.21;51.22;99477.72;21073298;28;20360;-72
2021/05/09 10:18:08;;;;;;;6.25;2.10;;;;;;;21.62;49.65;99466.84;21073001;28;20044;-73
2021/05/09 10:28:11;;;;;;;8.05;2.17;;;;;;;21.86;52.58;99453.34;21064300;28;20094;-73
2021/05/09 10:38:12;;;;;;;4.57;2.05;;;;;;;22.28;50.26;99444.88;21126824;28;20089;-74
2021/05/09 10:48:21;;;;;;;3.92;1.92;;;;;;;23.25;44.33;99442.94;21049216;28;20049;-74
2021/05/09 10:58:48;;;;;;;6.18;2.53;;;;;;;23.37;45.53;99422.72;21004367;28;20044;-75
2021/05/09 11:08:58;;;;;;;4.63;1.90;;;;;;;23.77;45.37;99405.28;20986626;28;20586;-76
2021/05/09 11:19:07;;;;;;;5.45;2.33;;;;;;;24.28;43.29;99384.50;21057589;28;20396;-74
2021/05/09 11:29:20;;;;;;;4.93;1.50;;;;;;;24.85;37.88;99372.66;21069634;28;20040;-72
2021/05/09 11:39:35;;;;;;;2.40;1.35;;;;;;;25.32;37.89;99358.44;21090088;28;20558;-74
2021/05/09 11:49:39;;;;;;;4.10;1.40;;;;;;;25.92;36.16;99352.94;21058393;28;20094;-73
2021/05/09 11:59:46;;;;;;;6.63;1.48;;;;;;;26.47;33.50;99345.44;21081212;28;20048;-74
2021/05/09 12:09:49;;;;;;;5.80;1.42;;;;;;;26.97;32.67;99343.81;21168458;28;20036;-74
2021/05/09 12:19:51;;;;;;;;;;;;;;;27.42;31.30;99325.78;21071802;28;20044;-75
2021/05/09 12:29:54;;;;;;;5.93;1.50;;;;;;;27.34;31.79;99331.41;21068632;28;19924;-75
2021/05/09 12:40:13;;;;;;;4.60;1.67;;;;;;;27.11;31.92;99302.41;20999069;28;20055;-75
2021/05/09 12:50:17;;;;;;;3.42;1.45;;;;;;;27.26;32.40;99290.53;21067908;28;20095;-74
2021/05/09 13:00:31;;;;;;;2.95;1.38;;;;;;;27.17;32.57;99274.66;21078365;28;20052;-74
2021/05/09 13:10:31;;;;;;;2.95;1.30;;;;;;;27.18;33.88;99251.28;21071948;28;20048;-75
2021/05/09 13:20:33;;;;;;;4.35;1.70;;;;;;;27.14;35.20;99250.09;21055488;28;20455;-74
2021/05/09 13:30:36;;;;;;;;;;;;;;;27.42;30.83;99234.38;21099865;28;20118;-73
2021/05/09 13:40:38;;;;;;;5.05;1.30;;;;;;;27.39;30.92;99209.78;21162351;28;19955;-73
2021/05/09 13:50:39;;;;;;;2.70;1.30;;;;;;;27.39;31.66;99199.84;21161629;28;20044;-74
2021/05/09 14:00:40;;;;;;;4.55;1.20;;;;;;;27.94;28.41;99199.94;21113297;28;20044;-74
2021/05/09 14:10:42;;;;;;;4.03;1.42;;;;;;;28.11;29.00;99182.16;21103683;28;20079;-75
2021/05/09 14:20:43;;;;;;;2.25;1.10;;;;;;;28.12;28.98;99173.06;20998454;28;20610;-73
2021/05/09 14:30:45;;;;;;;4.97;0.95;;;;;;;27.75;28.89;99161.47;21048533;28;20060;-74
2021/05/09 14:40:46;;;;;;;1.92;0.90;;;;;;;28.11;28.29;99149.03;21050765;28;20052;-73
2021/05/09 14:50:47;;;;;;;3.25;1.10;;;;;;;28.01;28.18;99133.44;20989394;28;20055;-73
2021/05/09 15:00:49;;;;;;;1.23;0.70;;;;;;;27.99;27.20;99128.28;20989245;28;20107;-73
2021/05/09 15:10:51;;;;;;;2.28;1.40;;;;;;;28.23;29.09;99128.44;20991684;28;20122;-73
2021/05/09 15:20:52;;;;;;;3.35;1.13;;;;;;;27.96;29.00;99107.22;21071635;28;20076;-73
2021/05/09 15:30:53;;;;;;;4.55;1.70;;;;;;;28.05;28.68;99094.25;21060737;28;20101;-73
2021/05/09 15:40:55;;;;;;;3.15;1.25;;;;;;;28.00;27.98;99080.66;21068532;28;20047;-74
2021/05/09 15:50:56;;;;;;;7.97;1.23;;;;;;;28.29;27.97;99065.63;21070119;28;20048;-74
2021/05/09 16:00:57;;;;;;;3.42;1.20;;;;;;;27.97;28.29;99049.69;21059283;28;20495;-75
2021/05/09 16:10:59;;;;;;;3.45;1.33;;;;;;;27.64;28.86;99043.91;21067886;28;20047;-76
2021/05/09 16:21:00;;;;;;;6.80;4.72;;;;;;;27.56;29.64;99041.53;21068277;28;20048;-74
2021/05/09 16:31:02;;;;;;;5.25;1.55;;;;;;;27.43;29.61;99031.72;21058890;28;20147;-75
2021/05/09 16:41:04;;;;;;;2.10;1.27;;;;;;;27.32;29.28;99031.66;21086958;28;20051;-74
2021/05/09 16:51:06;;;;;;;5.65;1.85;;;;;;;27.29;30.35;99024.84;21167068;28;20091;-74
2021/05/09 17:01:07;;;;;;;7.30;3.70;;;;;;;27.92;29.98;99016.44;21108276;28;20051;-75
2021/05/09 17:11:11;;;;;;;4.25;2.33;;;;;;;27.76;29.16;99031.34;21064239;28;20048;-74
2021/05/09 17:21:13;;;;;;;4.80;1.40;;;;;;;27.28;30.38;99028.59;21080844;28;20044;-73
2021/05/09 17:31:14;;;;;;;4.05;2.15;;;;;;;27.10;29.98;99037.47;21036012;28;20064;-74
2021/05/09 17:41:16;;;;;;;3.42;1.08;;;;;;;26.90;29.33;99034.16;20994275;28;20040;-72
2021/05/09 17:51:17;;;;;;;4.68;2.28;;;;;;;26.55;28.42;99041.88;20993708;28;20056;-74
2021/05/09 18:01:19;;;;;;;3.42;1.70;;;;;;;25.98;30.41;99046.38;21033653;28;20043;-74
2021/05/09 18:11:21;;;;;;;5.20;1.35;;;;;;;25.39;32.44;99046.63;21075987;28;20098;-72
2021/05/09 18:31:43;;;;;;;3.80;1.35;;;;;;;24.02;37.59;99050.13;21086673;28;20047;-73
2021/05/09 18:41:47;;;;;;;3.20;1.45;;;;;;;23.52;39.55;99068.22;21158036;28;20097;-74
2021/05/09 18:51:49;;;;;;;5.00;1.40;;;;;;;23.03;42.57;99076.34;21158022;28;20097;-74
2021/05/09 19:01:51;;;;;;;2.97;1.40;;;;;;;22.46;43.54;99087.13;21111945;28;20075;-74
2021/05/09 19:11:52;;;;;;;8.35;3.22;;;;;;;22.02;46.19;99082.81;21092536;28;20047;-74
2021/05/09 19:21:54;;;;;;;3.72;1.58;;;;;;;21.47;50.02;99085.19;21054313;28;20044;-74
2021/05/09 19:31:56;;;;;;;4.45;1.70;;;;;;;21.05;52.35;99091.94;21063410;28;20059;-75
2021/05/09 19:41:58;;;;;;;4.78;1.92;;;;;;;20.75;53.64;99083.06;21070194;28;20052;-75
2021/05/09 19:51:59;;;;;;;6.90;3.28;;;;;;;20.49;53.96;99085.28;21071140;28;20415;-75
2021/05/09 20:02:01;;;;;;;7.25;2.25;;;;;;;20.23;55.45;99090.94;21044012;28;20495;-75
2021/05/09 20:12:04;;;;;;;5.00;2.00;;;;;;;20.17;56.22;99090.78;21067819;28;20059;-74
2021/05/09 20:22:05;;;;;;;10.27;2.08;;;;;;;19.90;57.60;99100.13;21085308;28;20052;-75
2021/05/09 20:32:07;;;;;;;5.90;1.98;;;;;;;19.74;57.24;99102.84;21122626;28;20094;-77
2021/05/09 20:42:09;;;;;;;6.63;2.42;;;;;;;19.60;58.47;99102.59;21073583;28;20128;-74
2021/05/09 20:52:12;;;;;;;4.53;2.17;;;;;;;19.26;60.96;99094.03;21006640;28;20048;-74
2021/05/09 21:02:14;;;;;;;4.28;2.22;;;;;;;18.89;63.53;99107.03;21058319;28;20052;-75
2021/05/09 21:12:15;;;;;;;6.28;1.80;;;;;;;18.60;63.87;99102.25;21084214;28;20044;-75
2021/05/09 21:22:16;;;;;;;4.05;2.10;;;;;;;18.25;66.92;99119.25;21081664;28;20526;-72
2021/05/09 21:32:17;;;;;;;4.43;2.38;;;;;;;17.95;66.96;99116.19;21051725;28;20114;-75
2021/05/09 21:42:19;;;;;;;6.25;2.58;;;;;;;17.73;67.99;99122.06;21079477;28;20057;-73
2021/05/09 21:52:20;;;;;;;9.27;3.83;;;;;;;17.43;70.28;99125.22;21077968;28;20044;-73
2021/05/09 22:02:22;;;;;;;7.60;3.95;;;;;;;17.24;71.20;99136.03;21059296;28;20098;-73
2021/05/09 22:12:23;;;;;;;7.38;3.10;;;;;;;17.03;72.17;99113.44;21042991;28;20040;-74
2021/05/09 22:22:28;;;;;;;4.65;2.72;;;;;;;16.83;72.98;99088.19;21073773;28;20051;-73
2021/05/09 22:32:30;;;;;;;6.90;2.80;;;;;;;16.70;72.75;99089.56;21063135;28;20048;-73
2021/05/09 22:42:31;;;;;;;4.97;3.00;;;;;;;16.47;74.29;99103.22;21068831;28;20060;-73
2021/05/09 22:52:34;;;;;;;5.85;3.03;;;;;;;16.32;75.74;99091.53;21048473;22;20048;-73
2021/05/09 23:02:37;;;;;;;5.88;3.53;;;;;;;16.32;75.18;99085.41;21145448;28;20101;-71
2021/05/09 23:12:38;;;;;;;6.75;3.42;;;;;;;16.29;76.22;99091.03;21154677;28;20040;-70
2021/05/09 23:22:40;;;;;;;5.82;3.22;;;;;;;16.37;76.08;99088.44;21152498;28;20048;-73
2021/05/09 23:32:41;;;;;;;6.40;3.60;;;;;;;16.46;76.23;99124.50;21099059;28;20423;-73
2021/05/09 23:42:42;;;;;;;8.18;4.10;;;;;;;16.48;75.85;99112.81;21067621;28;20464;-73
2021/05/09 23:52:46;;;;;;;5.53;3.40;;;;;;;16.56;76.65;99141.09;21071044;28;20502;-73
